sensor_id;sensor_type;location;lat;lon;timestamp;temperature;humidity
2763;DHT22;1389;51.490;7.338;2023-05-10T00:02:17;14.10;99.30
2763;DHT22;1389;51.490;7.338;2023-05-10T00:04:43;14.10;99.30
2763;DHT22;1389;51.490;7.338;2023-05-10T00:07:09;14.10;99.30
2763;DHT22;1389;51.490;7.338;2023-05-10T00:09:36;14.10;99.30
2763;DHT22;1389;51.490;7.338;2023-05-10T00:12:02;14.10;99.30
2763;DHT22;1389;51.490;7.338;2023-05-10T00:14:28;14.10;99.30
2763;DHT22;1389;51.490;7.338;2023-05-10T00:16:54;14.10;99.30
2763;DHT22;1389;51.490;7.338;2023-05-10T00:19:20;14.10;99.30
2763;DHT22;1389;51.490;7.338;2023-05-10T00:21:46;14.00;99.30
2763;DHT22;1389;51.490;7.338;2023-05-10T00:24:12;14.00;99.30
2763;DHT22;1389;51.490;7.338;2023-05-10T00:26:38;13.90;99.30
2763;DHT22;1389;51.490;7.338;2023-05-10T00:29:04;14.00;99.30
2763;DHT22;1389;51.490;7.338;2023-05-10T00:31:30;13.90;99.30
2763;DHT22;1389;51.490;7.338;2023-05-10T00:33:56;13.90;99.30
2763;DHT22;1389;51.490;7.338;2023-05-10T00:36:22;13.90;99.30
2763;DHT22;1389;51.490;7.338;2023-05-10T00:38:48;14.00;99.30
2763;DHT22;1389;51.490;7.338;2023-05-10T00:41:14;13.90;99.30
2763;DHT22;1389;51.490;7.338;2023-05-10T00:43:41;13.90;99.30
2763;DHT22;1389;51.490;7.338;2023-05-10T00:46:07;13.90;99.30
2763;DHT22;1389;51.490;7.338;2023-05-10T00:48:34;13.90;99.30
2763;DHT22;1389;51.490;7.338;2023-05-10T00:51:01;13.90;99.30
2763;DHT22;1389;51.490;7.338;2023-05-10T00:53:27;13.90;99.30
2763;DHT22;1389;51.490;7.338;2023-05-10T00:55:54;13.90;99.30
2763;DHT22;1389;51.490;7.338;2023-05-10T00:58:21;13.90;99.30
2763;DHT22;1389;51.490;7.338;2023-05-10T01:00:49;13.90;99.30
2763;DHT22;1389;51.490;7.338;2023-05-10T01:03:17;13.90;99.30
2763;DHT22;1389;51.490;7.338;2023-05-10T01:05:43;13.90;99.30
2763;DHT22;1389;51.490;7.338;2023-05-10T01:08:09;13.90;99.30
2763;DHT22;1389;51.490;7.338;2023-05-10T01:10:36;13.90;99.30
2763;DHT22;1389;51.490;7.338;2023-05-10T01:13:02;13.90;99.30
2763;DHT22;1389;51.490;7.338;2023-05-10T01:15:29;13.90;99.30
2763;DHT22;1389;51.490;7.338;2023-05-10T01:17:56;13.90;99.30
2763;DHT22;1389;51.490;7.338;2023-05-10T01:20:23;13.90;99.30
2763;DHT22;1389;51.490;7.338;2023-05-10T01:28:58;13.90;99.30
2763;DHT22;1389;51.490;7.338;2023-05-10T01:31:35;13.90;99.30
2763;DHT22;1389;51.490;7.338;2023-05-10T01:34:09;13.90;99.30
2763;DHT22;1389;51.490;7.338;2023-05-10T01:39:21;13.90;99.30
2763;DHT22;1389;51.490;7.338;2023-05-10T01:42:21;13.90;99.30
2763;DHT22;1389;51.490;7.338;2023-05-10T01:47:30;13.90;99.30
2763;DHT22;1389;51.490;7.338;2023-05-10T01:50:01;13.90;99.30
2763;DHT22;1389;51.490;7.338;2023-05-10T01:52:33;13.90;99.30
2763;DHT22;1389;51.490;7.338;2023-05-10T01:55:02;13.90;99.30
2763;DHT22;1389;51.490;7.338;2023-05-10T01:57:35;13.80;99.30
2763;DHT22;1389;51.490;7.338;2023-05-10T02:00:04;13.80;99.30
2763;DHT22;1389;51.490;7.338;2023-05-10T02:02:34;13.90;99.30
2763;DHT22;1389;51.490;7.338;2023-05-10T02:05:02;13.80;99.30
2763;DHT22;1389;51.490;7.338;2023-05-10T02:07:30;13.80;99.30
2763;DHT22;1389;51.490;7.338;2023-05-10T02:09:58;13.70;99.30
2763;DHT22;1389;51.490;7.338;2023-05-10T02:12:25;13.70;99.30
2763;DHT22;1389;51.490;7.338;2023-05-10T02:14:53;13.60;99.30
2763;DHT22;1389;51.490;7.338;2023-05-10T02:17:21;13.60;99.30
2763;DHT22;1389;51.490;7.338;2023-05-10T02:19:48;13.50;99.30
2763;DHT22;1389;51.490;7.338;2023-05-10T02:22:15;13.50;99.30
2763;DHT22;1389;51.490;7.338;2023-05-10T02:24:43;13.60;99.30
2763;DHT22;1389;51.490;7.338;2023-05-10T02:27:10;13.60;99.30
2763;DHT22;1389;51.490;7.338;2023-05-10T02:29:37;13.50;99.30
2763;DHT22;1389;51.490;7.338;2023-05-10T02:32:04;13.50;99.30
2763;DHT22;1389;51.490;7.338;2023-05-10T02:34:31;13.50;99.30
2763;DHT22;1389;51.490;7.338;2023-05-10T02:36:58;13.50;99.30
2763;DHT22;1389;51.490;7.338;2023-05-10T02:39:26;13.50;99.30
2763;DHT22;1389;51.490;7.338;2023-05-10T02:41:54;13.60;99.30
2763;DHT22;1389;51.490;7.338;2023-05-10T02:44:22;13.60;99.30
2763;DHT22;1389;51.490;7.338;2023-05-10T02:46:49;13.60;99.30
2763;DHT22;1389;51.490;7.338;2023-05-10T02:49:16;13.60;99.30
2763;DHT22;1389;51.490;7.338;2023-05-10T02:51:51;13.50;99.30
2763;DHT22;1389;51.490;7.338;2023-05-10T02:54:26;13.50;99.30
2763;DHT22;1389;51.490;7.338;2023-05-10T02:57:03;13.50;99.30
2763;DHT22;1389;51.490;7.338;2023-05-10T02:59:30;13.50;99.30
2763;DHT22;1389;51.490;7.338;2023-05-10T03:01:56;13.50;99.30
2763;DHT22;1389;51.490;7.338;2023-05-10T03:04:23;13.50;99.30
2763;DHT22;1389;51.490;7.338;2023-05-10T03:06:49;13.40;99.30
2763;DHT22;1389;51.490;7.338;2023-05-10T03:09:15;13.40;99.30
2763;DHT22;1389;51.490;7.338;2023-05-10T03:12:00;13.30;99.30
2763;DHT22;1389;51.490;7.338;2023-05-10T03:14:39;13.30;99.30
2763;DHT22;1389;51.490;7.338;2023-05-10T03:19:48;13.30;99.30
2763;DHT22;1389;51.490;7.338;2023-05-10T03:22:30;13.30;99.30
2763;DHT22;1389;51.490;7.338;2023-05-10T03:24:57;13.30;99.30
2763;DHT22;1389;51.490;7.338;2023-05-10T03:27:25;13.30;99.30
2763;DHT22;1389;51.490;7.338;2023-05-10T03:29:53;13.30;99.30
2763;DHT22;1389;51.490;7.338;2023-05-10T03:32:20;13.30;99.30
2763;DHT22;1389;51.490;7.338;2023-05-10T03:34:46;13.30;99.30
2763;DHT22;1389;51.490;7.338;2023-05-10T03:37:13;13.20;99.30
2763;DHT22;1389;51.490;7.338;2023-05-10T03:39:39;13.30;99.30
2763;DHT22;1389;51.490;7.338;2023-05-10T03:42:05;13.30;99.30
2763;DHT22;1389;51.490;7.338;2023-05-10T03:44:31;13.30;99.30
2763;DHT22;1389;51.490;7.338;2023-05-10T03:46:59;13.30;99.30
2763;DHT22;1389;51.490;7.338;2023-05-10T03:49:25;13.30;99.30
2763;DHT22;1389;51.490;7.338;2023-05-10T03:51:51;13.30;99.30
2763;DHT22;1389;51.490;7.338;2023-05-10T03:54:17;13.30;99.30
2763;DHT22;1389;51.490;7.338;2023-05-10T03:56:43;13.30;99.30
2763;DHT22;1389;51.490;7.338;2023-05-10T03:59:09;13.30;99.30
2763;DHT22;1389;51.490;7.338;2023-05-10T04:04:01;13.40;99.30
2763;DHT22;1389;51.490;7.338;2023-05-10T04:06:27;13.40;99.30
2763;DHT22;1389;51.490;7.338;2023-05-10T04:08:53;13.40;99.30
2763;DHT22;1389;51.490;7.338;2023-05-10T04:11:21;13.40;99.30
2763;DHT22;1389;51.490;7.338;2023-05-10T04:13:47;13.40;99.30
2763;DHT22;1389;51.490;7.338;2023-05-10T04:16:14;13.40;99.30
2763;DHT22;1389;51.490;7.338;2023-05-10T04:18:40;13.40;99.30
2763;DHT22;1389;51.490;7.338;2023-05-10T04:21:11;13.40;99.30
2763;DHT22;1389;51.490;7.338;2023-05-10T04:23:38;13.40;99.30
2763;DHT22;1389;51.490;7.338;2023-05-10T04:26:04;13.40;99.30
2763;DHT22;1389;51.490;7.338;2023-05-10T04:28:30;13.40;99.30
2763;DHT22;1389;51.490;7.338;2023-05-10T04:31:07;13.40;99.30
2763;DHT22;1389;51.490;7.338;2023-05-10T04:33:34;13.40;99.30
2763;DHT22;1389;51.490;7.338;2023-05-10T04:36:01;13.40;99.30
2763;DHT22;1389;51.490;7.338;2023-05-10T04:38:28;13.40;99.30
2763;DHT22;1389;51.490;7.338;2023-05-10T04:41:03;13.40;99.30
2763;DHT22;1389;51.490;7.338;2023-05-10T04:43:29;13.40;99.30
2763;DHT22;1389;51.490;7.338;2023-05-10T04:45:56;13.40;99.30
2763;DHT22;1389;51.490;7.338;2023-05-10T04:48:22;13.40;99.30
2763;DHT22;1389;51.490;7.338;2023-05-10T04:50:48;13.40;99.30
2763;DHT22;1389;51.490;7.338;2023-05-10T04:53:14;13.40;99.30
2763;DHT22;1389;51.490;7.338;2023-05-10T04:55:40;13.40;99.30
2763;DHT22;1389;51.490;7.338;2023-05-10T04:58:08;13.40;99.30
2763;DHT22;1389;51.490;7.338;2023-05-10T05:00:34;13.40;99.30
2763;DHT22;1389;51.490;7.338;2023-05-10T05:03:01;13.40;99.30
2763;DHT22;1389;51.490;7.338;2023-05-10T05:05:27;13.40;99.30
2763;DHT22;1389;51.490;7.338;2023-05-10T05:10:19;13.40;99.30
2763;DHT22;1389;51.490;7.338;2023-05-10T05:12:45;13.40;99.30
2763;DHT22;1389;51.490;7.338;2023-05-10T05:15:11;13.40;99.30
2763;DHT22;1389;51.490;7.338;2023-05-10T05:17:37;13.40;99.30
2763;DHT22;1389;51.490;7.338;2023-05-10T05:20:03;13.40;99.30
2763;DHT22;1389;51.490;7.338;2023-05-10T05:22:29;13.40;99.30
2763;DHT22;1389;51.490;7.338;2023-05-10T05:24:56;13.40;99.30
2763;DHT22;1389;51.490;7.338;2023-05-10T05:27:24;13.50;99.30
2763;DHT22;1389;51.490;7.338;2023-05-10T05:29:55;13.50;99.30
2763;DHT22;1389;51.490;7.338;2023-05-10T05:32:22;13.50;99.30
2763;DHT22;1389;51.490;7.338;2023-05-10T05:34:58;13.50;99.30
2763;DHT22;1389;51.490;7.338;2023-05-10T05:37:24;13.50;99.30
2763;DHT22;1389;51.490;7.338;2023-05-10T05:39:50;13.50;99.30
2763;DHT22;1389;51.490;7.338;2023-05-10T05:42:16;13.50;99.30
2763;DHT22;1389;51.490;7.338;2023-05-10T05:44:44;13.50;99.30
2763;DHT22;1389;51.490;7.338;2023-05-10T05:47:10;13.60;99.30
2763;DHT22;1389;51.490;7.338;2023-05-10T05:49:36;13.60;99.30
2763;DHT22;1389;51.490;7.338;2023-05-10T05:52:03;13.60;99.30
2763;DHT22;1389;51.490;7.338;2023-05-10T05:54:30;13.70;99.30
2763;DHT22;1389;51.490;7.338;2023-05-10T05:57:00;13.70;99.30
2763;DHT22;1389;51.490;7.338;2023-05-10T05:59:26;13.70;99.30
2763;DHT22;1389;51.490;7.338;2023-05-10T06:01:53;13.70;99.30
2763;DHT22;1389;51.490;7.338;2023-05-10T06:04:19;13.70;99.30
2763;DHT22;1389;51.490;7.338;2023-05-10T06:06:45;13.80;99.30
2763;DHT22;1389;51.490;7.338;2023-05-10T06:09:11;13.80;99.30
2763;DHT22;1389;51.490;7.338;2023-05-10T06:11:38;13.90;99.30
2763;DHT22;1389;51.490;7.338;2023-05-10T06:14:04;13.90;99.30
2763;DHT22;1389;51.490;7.338;2023-05-10T06:16:30;13.90;99.30
2763;DHT22;1389;51.490;7.338;2023-05-10T06:18:56;13.90;99.30
2763;DHT22;1389;51.490;7.338;2023-05-10T06:21:22;13.90;99.30
2763;DHT22;1389;51.490;7.338;2023-05-10T06:23:49;13.90;99.30
2763;DHT22;1389;51.490;7.338;2023-05-10T06:26:15;14.00;99.30
2763;DHT22;1389;51.490;7.338;2023-05-10T06:28:41;14.00;99.30
2763;DHT22;1389;51.490;7.338;2023-05-10T06:31:07;14.00;99.30
2763;DHT22;1389;51.490;7.338;2023-05-10T06:33:34;14.00;99.30
2763;DHT22;1389;51.490;7.338;2023-05-10T06:36:00;14.00;99.30
2763;DHT22;1389;51.490;7.338;2023-05-10T06:38:26;14.00;99.30
2763;DHT22;1389;51.490;7.338;2023-05-10T06:40:52;14.00;99.30
2763;DHT22;1389;51.490;7.338;2023-05-10T06:43:18;14.00;99.30
2763;DHT22;1389;51.490;7.338;2023-05-10T06:45:44;14.00;99.30
2763;DHT22;1389;51.490;7.338;2023-05-10T06:48:10;14.00;99.30
2763;DHT22;1389;51.490;7.338;2023-05-10T06:50:36;14.00;99.30
2763;DHT22;1389;51.490;7.338;2023-05-10T06:53:02;14.10;99.30
2763;DHT22;1389;51.490;7.338;2023-05-10T06:55:29;14.10;99.30
2763;DHT22;1389;51.490;7.338;2023-05-10T06:57:55;14.20;99.30
2763;DHT22;1389;51.490;7.338;2023-05-10T07:00:21;14.20;99.30
2763;DHT22;1389;51.490;7.338;2023-05-10T07:02:47;14.20;99.30
2763;DHT22;1389;51.490;7.338;2023-05-10T07:05:13;14.30;99.30
2763;DHT22;1389;51.490;7.338;2023-05-10T07:07:40;14.30;99.30
2763;DHT22;1389;51.490;7.338;2023-05-10T07:10:06;14.30;99.30
2763;DHT22;1389;51.490;7.338;2023-05-10T07:12:33;14.40;99.30
2763;DHT22;1389;51.490;7.338;2023-05-10T07:14:59;14.40;99.10
2763;DHT22;1389;51.490;7.338;2023-05-10T07:17:25;14.40;99.30
2763;DHT22;1389;51.490;7.338;2023-05-10T07:19:51;14.40;99.30
2763;DHT22;1389;51.490;7.338;2023-05-10T07:22:17;14.50;99.30
2763;DHT22;1389;51.490;7.338;2023-05-10T07:24:43;14.60;99.30
2763;DHT22;1389;51.490;7.338;2023-05-10T07:27:09;14.60;99.10
2763;DHT22;1389;51.490;7.338;2023-05-10T07:29:35;14.70;99.30
2763;DHT22;1389;51.490;7.338;2023-05-10T07:32:03;14.80;99.30
2763;DHT22;1389;51.490;7.338;2023-05-10T07:36:58;14.80;98.80
2763;DHT22;1389;51.490;7.338;2023-05-10T07:39:24;14.80;98.80
2763;DHT22;1389;51.490;7.338;2023-05-10T07:41:50;14.80;98.60
2763;DHT22;1389;51.490;7.338;2023-05-10T07:44:16;14.80;97.90
2763;DHT22;1389;51.490;7.338;2023-05-10T07:46:44;14.80;97.80
2763;DHT22;1389;51.490;7.338;2023-05-10T07:49:10;14.80;98.10
2763;DHT22;1389;51.490;7.338;2023-05-10T07:51:36;14.80;98.30
2763;DHT22;1389;51.490;7.338;2023-05-10T07:54:03;14.80;98.30
2763;DHT22;1389;51.490;7.338;2023-05-10T07:56:30;14.90;98.10
2763;DHT22;1389;51.490;7.338;2023-05-10T07:59:01;14.90;97.90
2763;DHT22;1389;51.490;7.338;2023-05-10T08:01:30;14.90;97.90
2763;DHT22;1389;51.490;7.338;2023-05-10T08:06:23;15.00;97.40
2763;DHT22;1389;51.490;7.338;2023-05-10T08:08:49;15.00;97.40
2763;DHT22;1389;51.490;7.338;2023-05-10T08:11:17;15.00;97.20
2763;DHT22;1389;51.490;7.338;2023-05-10T08:13:44;15.10;97.00
2763;DHT22;1389;51.490;7.338;2023-05-10T08:16:30;15.00;96.80
2763;DHT22;1389;51.490;7.338;2023-05-10T08:18:56;15.00;96.70
2763;DHT22;1389;51.490;7.338;2023-05-10T08:21:27;15.00;96.80
2763;DHT22;1389;51.490;7.338;2023-05-10T08:24:03;15.00;96.80
2763;DHT22;1389;51.490;7.338;2023-05-10T08:26:29;15.10;96.10
2763;DHT22;1389;51.490;7.338;2023-05-10T08:28:55;15.10;95.90
2763;DHT22;1389;51.490;7.338;2023-05-10T08:31:21;15.10;96.00
2763;DHT22;1389;51.490;7.338;2023-05-10T08:33:47;15.10;95.60
2763;DHT22;1389;51.490;7.338;2023-05-10T08:36:19;15.10;95.30
2763;DHT22;1389;51.490;7.338;2023-05-10T08:38:50;15.00;95.90
2763;DHT22;1389;51.490;7.338;2023-05-10T08:41:18;15.10;96.10
2763;DHT22;1389;51.490;7.338;2023-05-10T08:43:53;15.10;96.30
2763;DHT22;1389;51.490;7.338;2023-05-10T08:46:21;15.10;96.10
2763;DHT22;1389;51.490;7.338;2023-05-10T08:48:49;15.10;96.30
2763;DHT22;1389;51.490;7.338;2023-05-10T08:51:22;15.10;96.10
2763;DHT22;1389;51.490;7.338;2023-05-10T08:53:57;15.10;95.40
2763;DHT22;1389;51.490;7.338;2023-05-10T08:56:27;15.20;95.40
2763;DHT22;1389;51.490;7.338;2023-05-10T08:58:53;15.10;95.50
2763;DHT22;1389;51.490;7.338;2023-05-10T09:01:20;15.20;95.50
2763;DHT22;1389;51.490;7.338;2023-05-10T09:03:55;15.20;94.90
2763;DHT22;1389;51.490;7.338;2023-05-10T09:06:34;15.20;95.30
2763;DHT22;1389;51.490;7.338;2023-05-10T09:09:01;15.20;95.30
2763;DHT22;1389;51.490;7.338;2023-05-10T09:11:27;15.30;95.40
2763;DHT22;1389;51.490;7.338;2023-05-10T09:13:55;15.40;95.70
2763;DHT22;1389;51.490;7.338;2023-05-10T09:16:22;15.50;95.20
2763;DHT22;1389;51.490;7.338;2023-05-10T09:21:15;15.50;95.10
2763;DHT22;1389;51.490;7.338;2023-05-10T09:23:47;15.60;94.60
2763;DHT22;1389;51.490;7.338;2023-05-10T09:26:15;15.50;94.10
2763;DHT22;1389;51.490;7.338;2023-05-10T09:28:56;15.50;94.30
2763;DHT22;1389;51.490;7.338;2023-05-10T09:31:22;15.50;94.10
2763;DHT22;1389;51.490;7.338;2023-05-10T09:33:50;15.50;94.10
2763;DHT22;1389;51.490;7.338;2023-05-10T09:36:17;15.50;92.90
2763;DHT22;1389;51.490;7.338;2023-05-10T09:38:48;15.50;92.90
2763;DHT22;1389;51.490;7.338;2023-05-10T09:41:18;15.50;93.10
2763;DHT22;1389;51.490;7.338;2023-05-10T09:43:45;15.50;93.10
2763;DHT22;1389;51.490;7.338;2023-05-10T09:46:12;15.50;93.80
2763;DHT22;1389;51.490;7.338;2023-05-10T09:48:43;15.50;93.80
2763;DHT22;1389;51.490;7.338;2023-05-10T09:53:36;15.60;92.90
2763;DHT22;1389;51.490;7.338;2023-05-10T09:56:02;15.60;92.40
2763;DHT22;1389;51.490;7.338;2023-05-10T09:58:28;15.60;91.90
2763;DHT22;1389;51.490;7.338;2023-05-10T10:00:54;15.60;92.30
2763;DHT22;1389;51.490;7.338;2023-05-10T10:03:21;15.80;93.50
2763;DHT22;1389;51.490;7.338;2023-05-10T10:05:48;15.80;93.50
2763;DHT22;1389;51.490;7.338;2023-05-10T10:08:15;15.90;92.10
2763;DHT22;1389;51.490;7.338;2023-05-10T10:10:42;16.00;92.10
2763;DHT22;1389;51.490;7.338;2023-05-10T10:13:10;16.00;91.70
2763;DHT22;1389;51.490;7.338;2023-05-10T10:15:37;16.00;91.80
2763;DHT22;1389;51.490;7.338;2023-05-10T10:18:03;16.10;92.20
2763;DHT22;1389;51.490;7.338;2023-05-10T10:20:31;16.10;92.40
2763;DHT22;1389;51.490;7.338;2023-05-10T10:22:57;16.20;92.00
2763;DHT22;1389;51.490;7.338;2023-05-10T10:25:23;16.40;92.20
2763;DHT22;1389;51.490;7.338;2023-05-10T10:30:27;16.70;90.70
2763;DHT22;1389;51.490;7.338;2023-05-10T10:35:44;17.10;90.10
2763;DHT22;1389;51.490;7.338;2023-05-10T10:38:12;17.10;89.10
2763;DHT22;1389;51.490;7.338;2023-05-10T10:40:39;17.10;88.30
2763;DHT22;1389;51.490;7.338;2023-05-10T10:43:28;16.90;86.40
2763;DHT22;1389;51.490;7.338;2023-05-10T10:46:17;16.70;86.90
2763;DHT22;1389;51.490;7.338;2023-05-10T10:49:07;16.50;87.10
2763;DHT22;1389;51.490;7.338;2023-05-10T10:51:40;16.40;87.80
2763;DHT22;1389;51.490;7.338;2023-05-10T10:54:29;16.30;88.70
2763;DHT22;1389;51.490;7.338;2023-05-10T10:57:14;16.20;88.60
2763;DHT22;1389;51.490;7.338;2023-05-10T10:59:43;16.20;88.40
2763;DHT22;1389;51.490;7.338;2023-05-10T11:02:10;16.10;88.10
2763;DHT22;1389;51.490;7.338;2023-05-10T11:04:43;16.10;88.30
2763;DHT22;1389;51.490;7.338;2023-05-10T11:07:16;16.20;88.60
2763;DHT22;1389;51.490;7.338;2023-05-10T11:09:43;16.20;88.50
2763;DHT22;1389;51.490;7.338;2023-05-10T11:12:09;16.30;88.00
2763;DHT22;1389;51.490;7.338;2023-05-10T11:14:35;16.40;86.40
2763;DHT22;1389;51.490;7.338;2023-05-10T11:17:01;16.40;86.30
2763;DHT22;1389;51.490;7.338;2023-05-10T11:20:06;16.40;85.60
2763;DHT22;1389;51.490;7.338;2023-05-10T11:22:52;16.40;86.60
2763;DHT22;1389;51.490;7.338;2023-05-10T11:25:18;16.40;86.80
2763;DHT22;1389;51.490;7.338;2023-05-10T11:27:46;16.40;86.10
2763;DHT22;1389;51.490;7.338;2023-05-10T11:30:14;16.30;85.90
2763;DHT22;1389;51.490;7.338;2023-05-10T11:32:40;16.20;85.60
2763;DHT22;1389;51.490;7.338;2023-05-10T11:35:11;16.20;85.70
2763;DHT22;1389;51.490;7.338;2023-05-10T11:37:39;16.10;85.70
2763;DHT22;1389;51.490;7.338;2023-05-10T11:40:08;16.10;86.20
2763;DHT22;1389;51.490;7.338;2023-05-10T11:42:38;16.10;86.40
2763;DHT22;1389;51.490;7.338;2023-05-10T11:45:05;16.10;87.40
2763;DHT22;1389;51.490;7.338;2023-05-10T11:47:31;16.10;87.70
2763;DHT22;1389;51.490;7.338;2023-05-10T11:49:57;16.10;86.60
2763;DHT22;1389;51.490;7.338;2023-05-10T11:52:24;16.00;86.20
2763;DHT22;1389;51.490;7.338;2023-05-10T11:54:54;16.00;86.60
2763;DHT22;1389;51.490;7.338;2023-05-10T11:57:25;16.10;87.40
2763;DHT22;1389;51.490;7.338;2023-05-10T11:59:55;16.20;87.50
2763;DHT22;1389;51.490;7.338;2023-05-10T12:02:22;16.40;87.20
2763;DHT22;1389;51.490;7.338;2023-05-10T12:04:48;16.50;87.30
2763;DHT22;1389;51.490;7.338;2023-05-10T12:07:15;16.80;86.10
2763;DHT22;1389;51.490;7.338;2023-05-10T12:09:44;16.80;85.50
2763;DHT22;1389;51.490;7.338;2023-05-10T12:12:16;16.80;84.50
2763;DHT22;1389;51.490;7.338;2023-05-10T12:14:42;16.70;84.60
2763;DHT22;1389;51.490;7.338;2023-05-10T12:17:12;16.70;84.30
2763;DHT22;1389;51.490;7.338;2023-05-10T12:19:39;16.60;85.20
2763;DHT22;1389;51.490;7.338;2023-05-10T12:22:05;16.60;84.50
2763;DHT22;1389;51.490;7.338;2023-05-10T12:24:34;16.50;84.80
2763;DHT22;1389;51.490;7.338;2023-05-10T12:27:05;16.40;85.30
2763;DHT22;1389;51.490;7.338;2023-05-10T12:29:33;16.50;86.30
2763;DHT22;1389;51.490;7.338;2023-05-10T12:31:59;16.50;86.50
2763;DHT22;1389;51.490;7.338;2023-05-10T12:34:35;16.60;85.70
2763;DHT22;1389;51.490;7.338;2023-05-10T12:37:04;16.70;85.60
2763;DHT22;1389;51.490;7.338;2023-05-10T12:39:44;16.70;85.00
2763;DHT22;1389;51.490;7.338;2023-05-10T12:44:36;16.70;84.10
2763;DHT22;1389;51.490;7.338;2023-05-10T12:47:02;16.70;84.80
2763;DHT22;1389;51.490;7.338;2023-05-10T12:49:29;16.80;84.90
2763;DHT22;1389;51.490;7.338;2023-05-10T12:51:55;16.90;85.20
2763;DHT22;1389;51.490;7.338;2023-05-10T12:54:21;17.00;84.60
2763;DHT22;1389;51.490;7.338;2023-05-10T12:56:47;17.10;84.70
2763;DHT22;1389;51.490;7.338;2023-05-10T12:59:13;17.10;84.10
2763;DHT22;1389;51.490;7.338;2023-05-10T13:01:39;17.10;83.90
2763;DHT22;1389;51.490;7.338;2023-05-10T13:04:05;17.10;84.00
2763;DHT22;1389;51.490;7.338;2023-05-10T13:06:31;17.10;84.30
2763;DHT22;1389;51.490;7.338;2023-05-10T13:08:57;17.10;84.30
2763;DHT22;1389;51.490;7.338;2023-05-10T13:11:23;17.10;82.50
2763;DHT22;1389;51.490;7.338;2023-05-10T13:13:49;17.10;82.50
2763;DHT22;1389;51.490;7.338;2023-05-10T13:16:15;17.00;82.90
2763;DHT22;1389;51.490;7.338;2023-05-10T13:18:41;16.90;82.90
2763;DHT22;1389;51.490;7.338;2023-05-10T13:21:08;16.90;83.60
2763;DHT22;1389;51.490;7.338;2023-05-10T13:23:34;16.90;83.90
2763;DHT22;1389;51.490;7.338;2023-05-10T13:26:00;16.90;83.20
2763;DHT22;1389;51.490;7.338;2023-05-10T13:28:26;16.80;83.80
2763;DHT22;1389;51.490;7.338;2023-05-10T13:33:19;16.80;84.40
2763;DHT22;1389;51.490;7.338;2023-05-10T13:35:45;16.80;84.10
2763;DHT22;1389;51.490;7.338;2023-05-10T13:38:12;16.90;83.00
2763;DHT22;1389;51.490;7.338;2023-05-10T13:40:38;17.00;83.50
2763;DHT22;1389;51.490;7.338;2023-05-10T13:43:04;17.10;82.90
2763;DHT22;1389;51.490;7.338;2023-05-10T13:45:30;17.30;84.00
2763;DHT22;1389;51.490;7.338;2023-05-10T13:47:56;17.50;81.70
2763;DHT22;1389;51.490;7.338;2023-05-10T13:50:23;17.50;80.20
2763;DHT22;1389;51.490;7.338;2023-05-10T13:52:49;17.60;79.80
2763;DHT22;1389;51.490;7.338;2023-05-10T13:55:15;17.70;79.40
2763;DHT22;1389;51.490;7.338;2023-05-10T13:57:41;17.80;79.90
2763;DHT22;1389;51.490;7.338;2023-05-10T14:00:08;18.00;79.90
2763;DHT22;1389;51.490;7.338;2023-05-10T14:02:35;18.00;78.30
2763;DHT22;1389;51.490;7.338;2023-05-10T14:05:01;18.10;77.90
2763;DHT22;1389;51.490;7.338;2023-05-10T14:07:27;18.20;77.80
2763;DHT22;1389;51.490;7.338;2023-05-10T14:09:53;18.20;77.40
2763;DHT22;1389;51.490;7.338;2023-05-10T14:12:19;18.30;76.80
2763;DHT22;1389;51.490;7.338;2023-05-10T14:14:45;18.40;76.20
2763;DHT22;1389;51.490;7.338;2023-05-10T14:17:11;18.40;76.80
2763;DHT22;1389;51.490;7.338;2023-05-10T14:19:37;18.50;77.00
2763;DHT22;1389;51.490;7.338;2023-05-10T14:22:04;18.60;77.40
2763;DHT22;1389;51.490;7.338;2023-05-10T14:24:30;18.60;77.30
2763;DHT22;1389;51.490;7.338;2023-05-10T14:26:56;18.50;77.40
2763;DHT22;1389;51.490;7.338;2023-05-10T14:29:22;18.40;77.00
2763;DHT22;1389;51.490;7.338;2023-05-10T14:31:49;18.40;78.70
2763;DHT22;1389;51.490;7.338;2023-05-10T14:34:15;18.60;78.30
2763;DHT22;1389;51.490;7.338;2023-05-10T14:36:41;18.90;77.10
2763;DHT22;1389;51.490;7.338;2023-05-10T14:39:07;19.00;76.60
2763;DHT22;1389;51.490;7.338;2023-05-10T14:41:35;19.20;78.10
2763;DHT22;1389;51.490;7.338;2023-05-10T14:44:01;19.40;75.20
2763;DHT22;1389;51.490;7.338;2023-05-10T14:46:29;19.40;75.00
2763;DHT22;1389;51.490;7.338;2023-05-10T14:48:55;19.50;75.10
2763;DHT22;1389;51.490;7.338;2023-05-10T14:51:21;19.50;73.70
2763;DHT22;1389;51.490;7.338;2023-05-10T14:53:48;19.40;73.00
2763;DHT22;1389;51.490;7.338;2023-05-10T14:56:15;19.40;74.60
2763;DHT22;1389;51.490;7.338;2023-05-10T14:58:41;19.30;73.80
2763;DHT22;1389;51.490;7.338;2023-05-10T15:01:07;19.20;73.60
2763;DHT22;1389;51.490;7.338;2023-05-10T15:05:59;19.40;73.90
2763;DHT22;1389;51.490;7.338;2023-05-10T15:08:25;19.50;73.30
2763;DHT22;1389;51.490;7.338;2023-05-10T15:10:52;19.50;72.90
2763;DHT22;1389;51.490;7.338;2023-05-10T15:13:18;19.40;72.70
2763;DHT22;1389;51.490;7.338;2023-05-10T15:15:44;19.50;74.70
2763;DHT22;1389;51.490;7.338;2023-05-10T15:18:10;19.60;73.60
2763;DHT22;1389;51.490;7.338;2023-05-10T15:23:02;19.80;73.20
2763;DHT22;1389;51.490;7.338;2023-05-10T15:25:28;19.80;71.30
2763;DHT22;1389;51.490;7.338;2023-05-10T15:27:54;19.60;72.30
2763;DHT22;1389;51.490;7.338;2023-05-10T15:30:21;19.50;73.00
2763;DHT22;1389;51.490;7.338;2023-05-10T15:32:47;19.40;73.60
2763;DHT22;1389;51.490;7.338;2023-05-10T15:35:13;19.30;72.30
2763;DHT22;1389;51.490;7.338;2023-05-10T15:37:39;19.20;74.90
2763;DHT22;1389;51.490;7.338;2023-05-10T15:40:06;19.20;73.90
2763;DHT22;1389;51.490;7.338;2023-05-10T15:42:32;19.30;75.10
2763;DHT22;1389;51.490;7.338;2023-05-10T15:44:58;19.30;75.10
2763;DHT22;1389;51.490;7.338;2023-05-10T15:47:25;19.30;75.70
2763;DHT22;1389;51.490;7.338;2023-05-10T15:49:52;19.10;73.80
2763;DHT22;1389;51.490;7.338;2023-05-10T15:52:18;18.80;73.10
2763;DHT22;1389;51.490;7.338;2023-05-10T15:54:45;18.80;73.20
2763;DHT22;1389;51.490;7.338;2023-05-10T15:57:11;18.70;74.70
2763;DHT22;1389;51.490;7.338;2023-05-10T15:59:38;18.70;74.50
2763;DHT22;1389;51.490;7.338;2023-05-10T16:02:05;18.60;76.00
2763;DHT22;1389;51.490;7.338;2023-05-10T16:04:31;18.60;76.70
2763;DHT22;1389;51.490;7.338;2023-05-10T16:06:57;18.50;77.30
2763;DHT22;1389;51.490;7.338;2023-05-10T16:09:23;18.50;76.80
2763;DHT22;1389;51.490;7.338;2023-05-10T16:11:49;18.40;76.60
2763;DHT22;1389;51.490;7.338;2023-05-10T16:14:16;18.40;77.30
2763;DHT22;1389;51.490;7.338;2023-05-10T16:16:42;18.30;77.00
2763;DHT22;1389;51.490;7.338;2023-05-10T16:19:08;18.30;77.00
2763;DHT22;1389;51.490;7.338;2023-05-10T16:21:34;18.20;76.90
2763;DHT22;1389;51.490;7.338;2023-05-10T16:24:01;18.20;77.00
2763;DHT22;1389;51.490;7.338;2023-05-10T16:26:27;18.10;76.90
2763;DHT22;1389;51.490;7.338;2023-05-10T16:28:53;18.10;76.70
2763;DHT22;1389;51.490;7.338;2023-05-10T16:31:19;18.00;78.30
2763;DHT22;1389;51.490;7.338;2023-05-10T16:33:45;17.90;78.30
2763;DHT22;1389;51.490;7.338;2023-05-10T16:36:12;17.90;78.60
2763;DHT22;1389;51.490;7.338;2023-05-10T16:38:38;17.90;78.80
2763;DHT22;1389;51.490;7.338;2023-05-10T16:41:04;17.80;79.70
2763;DHT22;1389;51.490;7.338;2023-05-10T16:43:31;17.80;80.40
2763;DHT22;1389;51.490;7.338;2023-05-10T16:45:58;17.80;81.20
2763;DHT22;1389;51.490;7.338;2023-05-10T16:48:24;17.60;82.00
2763;DHT22;1389;51.490;7.338;2023-05-10T16:50:50;17.60;81.60